Huvudsida
METAR-TAF:

METAR-TAF

Flygplatser :

Lanseria, Sydafrika

latitud: 25-56S, longitud: 027-56E, höjd: 1377 m

Aktuellt väderrapport

Denna rapport gjordes för 33 minuter sedan, klockan 23:00 UTC
Vind 2 kt varierande vindriktning
Temperatur 10°C
Fuktighet 71%
Tryck 1027 hPa

METAR: FALA 252300Z AUTO VRB02KT //// ///////// 10/05 Q1027 NOSIG

Tid: 01:33 (23:33 UTC)

Väderprognos

Denna rapport gjordes för 7 timmar och 33 minuter sedan, klockan 16:00 UTC
Prognos gäller från 25 kl. 18 UTC till 26 kl. 18 UTC
Vind 3 kt varierande vindriktning
Sikt 10 km eller mer
Inga moln under 1 500 m eller inga cumulonimbus
Blir
från 26 kl. 10 UTC till 26 kl. 12 UTC
Vind 8 kt från syd/sydväst
Blir
från 26 kl. 16 UTC till 26 kl. 18 UTC
Vind 3 kt varierande vindriktning

TAF: FALA 251600Z 2518/2618 VRB03KT CAVOK TX24/2612Z TN07/2604Z BECMG 2610/2612 20008KT BECMG 2616/2618 VRB03KT

Aktuella väderrapporter och prognoser från 4000 flygplatser (METAR- och TAF-rapporter).

De tillgängliga stationerna syns som gula och röda prickar på kartan.

För musen över prickarna för att se namnen på stationerna.

Klicka sedan för att få väderrapporter och prognoser.

För att ändra kartan: Klicka på de gröna knapparna med ett svart kors på för att zooma in; den gröna knappen med ett streck på för att zooma ut; eller på de gröna pilarna för angränsande kartor.


METAR-TAF: